createdAt,value
2023-01-27T00:04:46.928Z,377.20
2023-01-27T00:09:54.149Z,376.89
2023-01-27T00:15:01.303Z,376.87
2023-01-27T00:20:08.495Z,376.35
2023-01-27T00:25:15.689Z,376.91
2023-01-27T00:30:22.855Z,377.41
2023-01-27T00:35:30.099Z,377.38
2023-01-27T00:40:37.365Z,377.96
2023-01-27T00:45:44.501Z,377.69
2023-01-27T00:50:51.709Z,378.91
2023-01-27T00:55:58.925Z,378.63
2023-01-27T01:01:06.202Z,378.61
2023-01-27T01:06:13.369Z,379.29
2023-01-27T01:11:20.554Z,378.81
2023-01-27T01:16:27.790Z,378.84
2023-01-27T01:21:34.915Z,378.37
2023-01-27T01:26:42.125Z,377.81
2023-01-27T01:31:49.334Z,378.00
2023-01-27T01:36:56.455Z,378.10
2023-01-27T01:42:03.670Z,378.35
2023-01-27T01:47:10.941Z,378.67
2023-01-27T01:52:18.112Z,378.56
2023-01-27T01:57:25.331Z,379.01
2023-01-27T02:02:32.570Z,379.10
2023-01-27T02:07:39.777Z,379.48
2023-01-27T02:12:47.049Z,379.53
2023-01-27T02:17:54.279Z,380.06
2023-01-27T02:23:01.609Z,379.46
2023-01-27T02:28:08.768Z,380.38
2023-01-27T02:33:15.939Z,380.54
2023-01-27T02:38:23.083Z,380.31
2023-01-27T02:43:30.288Z,381.12
2023-01-27T02:48:37.448Z,381.35
2023-01-27T02:53:44.733Z,381.92
2023-01-27T02:58:51.961Z,382.94
2023-01-27T03:03:59.119Z,383.29
2023-01-27T03:09:06.355Z,382.44
2023-01-27T03:14:13.607Z,382.12
2023-01-27T03:19:20.878Z,382.07
2023-01-27T03:24:28.169Z,381.95
2023-01-27T03:29:35.271Z,381.75
2023-01-27T03:34:42.413Z,382.59
2023-01-27T03:39:49.701Z,382.00
2023-01-27T03:44:56.907Z,382.48
2023-01-27T03:50:04.066Z,383.20
2023-01-27T03:55:11.699Z,382.64
2023-01-27T04:00:18.555Z,383.84
2023-01-27T04:05:25.949Z,383.80
2023-01-27T04:10:33.112Z,383.61
2023-01-27T04:15:40.353Z,383.42
2023-01-27T04:20:47.455Z,383.25
2023-01-27T04:25:54.665Z,383.33
2023-01-27T04:31:02.077Z,382.14
2023-01-27T04:36:09.122Z,382.10
2023-01-27T04:41:16.318Z,381.60
2023-01-27T04:46:23.537Z,381.01
2023-01-27T04:51:30.804Z,381.76
2023-01-27T04:56:38.050Z,382.78
2023-01-27T05:01:45.315Z,384.41
2023-01-27T05:06:52.447Z,383.46
2023-01-27T05:11:59.623Z,383.49
2023-01-27T05:17:07.137Z,383.48
2023-01-27T05:22:14.089Z,384.26
2023-01-27T05:27:21.295Z,384.13
2023-01-27T05:32:28.582Z,384.03
2023-01-27T05:37:35.755Z,382.88
2023-01-27T05:42:42.944Z,382.37
2023-01-27T05:47:50.131Z,381.76
2023-01-27T05:52:57.294Z,381.18
2023-01-27T05:58:04.483Z,381.66
2023-01-27T06:03:11.786Z,381.90
2023-01-27T06:08:18.947Z,381.48
2023-01-27T06:13:26.224Z,380.23
2023-01-27T06:18:33.589Z,380.56
2023-01-27T06:23:40.717Z,379.97
2023-01-27T06:28:47.874Z,379.81
2023-01-27T06:33:55.115Z,379.22
2023-01-27T06:39:02.265Z,378.56
2023-01-27T06:44:09.502Z,377.36
2023-01-27T06:49:16.746Z,377.22
2023-01-27T06:54:23.912Z,376.75
2023-01-27T06:59:31.172Z,376.95
2023-01-27T07:04:38.435Z,376.58
2023-01-27T07:09:52.464Z,376.07
2023-01-27T07:14:52.906Z,375.57
2023-01-27T07:20:00.184Z,375.24
2023-01-27T07:25:07.353Z,374.33
2023-01-27T07:30:15.130Z,374.03
2023-01-27T07:35:21.843Z,374.09
2023-01-27T07:40:29.160Z,373.92
2023-01-27T07:45:36.259Z,373.53
2023-01-27T07:50:43.397Z,373.70
2023-01-27T07:55:50.545Z,373.54
2023-01-27T08:00:57.814Z,373.45
2023-01-27T08:06:05.101Z,373.56
2023-01-27T08:11:12.344Z,373.98
2023-01-27T08:16:19.626Z,373.50
2023-01-27T08:21:26.785Z,373.50
2023-01-27T08:26:34.089Z,373.10
2023-01-27T08:31:41.498Z,373.66
2023-01-27T08:36:48.650Z,372.93
2023-01-27T08:41:55.788Z,372.86
2023-01-27T08:47:03.023Z,372.65
2023-01-27T08:52:10.390Z,372.72
2023-01-27T08:57:17.554Z,372.10
2023-01-27T09:02:24.691Z,372.01
2023-01-27T09:07:31.909Z,371.65
2023-01-27T09:12:39.094Z,372.06
2023-01-27T09:17:46.302Z,371.65
2023-01-27T09:22:53.492Z,372.23
2023-01-27T09:28:00.637Z,371.84
2023-01-27T09:33:07.955Z,371.66
2023-01-27T09:38:15.170Z,371.78
2023-01-27T09:43:22.351Z,372.08
2023-01-27T09:48:29.500Z,371.96
2023-01-27T09:53:36.740Z,371.75
2023-01-27T09:58:43.902Z,371.18
2023-01-27T10:03:51.092Z,370.72
2023-01-27T10:08:58.279Z,370.75
2023-01-27T10:14:05.436Z,370.77
2023-01-27T10:19:12.628Z,370.65
2023-01-27T10:24:20.051Z,371.31
2023-01-27T10:29:27.178Z,371.37
2023-01-27T10:34:34.382Z,371.69
2023-01-27T10:39:41.586Z,371.77
2023-01-27T10:44:48.763Z,372.11
2023-01-27T10:49:55.917Z,372.28
2023-01-27T10:55:03.112Z,372.74
2023-01-27T11:00:37.943Z,372.82
2023-01-27T11:05:17.627Z,372.26
2023-01-27T11:10:24.901Z,372.55
2023-01-27T11:15:32.148Z,372.02
2023-01-27T11:20:39.321Z,372.47
2023-01-27T11:25:46.800Z,372.43
2023-01-27T11:30:54.215Z,373.03
2023-01-27T11:36:01.494Z,372.85
2023-01-27T11:41:08.703Z,372.75
2023-01-27T11:46:16.161Z,372.91
2023-01-27T11:51:23.282Z,374.54
2023-01-27T11:56:30.457Z,374.39
2023-01-27T12:01:37.622Z,374.24
2023-01-27T12:06:44.910Z,374.29
2023-01-27T12:11:52.136Z,374.16
2023-01-27T12:16:59.305Z,374.35
2023-01-27T12:22:06.470Z,374.52
2023-01-27T12:27:13.686Z,374.91
2023-01-27T12:32:20.846Z,375.27
2023-01-27T12:37:28.222Z,375.06
2023-01-27T12:42:35.443Z,375.23
2023-01-27T12:47:42.566Z,375.45
2023-01-27T12:52:49.757Z,375.87
2023-01-27T12:57:56.964Z,376.28
2023-01-27T13:03:04.127Z,376.36
2023-01-27T13:08:11.317Z,376.86
2023-01-27T13:13:18.617Z,376.68
2023-01-27T13:18:25.786Z,376.12
2023-01-27T13:23:32.961Z,376.15
2023-01-27T13:28:52.305Z,376.11
2023-01-27T13:33:47.952Z,376.34
2023-01-27T13:38:55.180Z,375.46
2023-01-27T13:44:02.383Z,375.79
2023-01-27T13:49:09.583Z,376.54
2023-01-27T13:54:16.784Z,376.41
2023-01-27T13:59:23.996Z,376.32
2023-01-27T14:04:31.224Z,375.78
2023-01-27T14:09:40.612Z,375.50
2023-01-27T14:14:57.389Z,375.13
2023-01-27T14:19:52.899Z,374.87
2023-01-27T14:25:00.085Z,374.83
2023-01-27T14:30:07.636Z,373.81
2023-01-27T14:35:14.567Z,374.20
2023-01-27T14:40:21.799Z,373.90
2023-01-27T14:45:29.054Z,373.65
2023-01-27T14:50:36.225Z,373.46
2023-01-27T14:55:43.499Z,373.07
2023-01-27T15:00:50.831Z,373.43
2023-01-27T15:05:57.867Z,372.55
2023-01-27T15:11:05.053Z,372.77
2023-01-27T15:16:12.332Z,372.08
2023-01-27T15:21:19.459Z,371.22
2023-01-27T15:26:26.700Z,370.42
2023-01-27T15:31:34.081Z,370.21
2023-01-27T15:36:41.126Z,369.86
2023-01-27T15:41:48.317Z,369.50
2023-01-27T15:46:55.570Z,369.51
2023-01-27T15:52:02.752Z,369.37
2023-01-27T15:57:09.935Z,368.83
2023-01-27T16:02:17.174Z,368.70
2023-01-27T16:07:24.242Z,368.15
2023-01-27T16:12:31.471Z,367.81
2023-01-27T16:17:38.698Z,367.78
2023-01-27T16:22:45.848Z,367.41
2023-01-27T16:27:53.067Z,367.27
2023-01-27T16:33:00.249Z,367.73
2023-01-27T16:38:07.357Z,367.27
2023-01-27T16:43:14.616Z,366.84
2023-01-27T16:48:21.879Z,367.06
2023-01-27T16:53:29.048Z,366.90
2023-01-27T16:58:46.038Z,366.26
2023-01-27T17:03:43.465Z,365.80
2023-01-27T17:08:50.614Z,365.05
2023-01-27T17:13:57.986Z,365.02
2023-01-27T17:19:05.502Z,364.44
2023-01-27T17:24:12.729Z,364.97
2023-01-27T17:29:19.858Z,364.55
2023-01-27T17:34:27.049Z,364.42
2023-01-27T17:39:34.202Z,364.01
2023-01-27T17:44:41.368Z,363.70
2023-01-27T17:49:48.856Z,363.90
2023-01-27T17:54:56.177Z,363.85
2023-01-27T18:00:03.354Z,363.42
2023-01-27T18:05:10.907Z,362.90
2023-01-27T18:10:18.405Z,362.84
2023-01-27T18:15:25.698Z,362.49
2023-01-27T18:20:33.212Z,361.49
2023-01-27T18:25:40.627Z,361.08
2023-01-27T18:30:48.121Z,361.89
2023-01-27T18:35:55.856Z,361.18
2023-01-27T18:41:03.439Z,360.76
2023-01-27T18:46:11.154Z,361.46
2023-01-27T18:51:18.530Z,360.51
2023-01-27T18:56:25.861Z,360.84
2023-01-27T19:01:35.146Z,359.88
2023-01-27T19:06:40.617Z,358.84
2023-01-27T19:11:49.137Z,359.05
2023-01-27T19:16:56.451Z,359.18
2023-01-27T19:22:03.868Z,358.25
2023-01-27T19:27:11.315Z,357.88
2023-01-27T19:32:18.875Z,357.66
2023-01-27T19:37:27.558Z,357.82
2023-01-27T19:42:35.125Z,357.26
2023-01-27T19:47:42.790Z,356.86
2023-01-27T19:52:50.208Z,356.97
2023-01-27T19:57:58.274Z,357.10
2023-01-27T20:03:05.781Z,357.24
2023-01-27T20:08:13.519Z,356.76
2023-01-27T20:13:22.036Z,356.72
2023-01-27T20:18:29.857Z,356.57
2023-01-27T20:23:37.511Z,356.37
2023-01-27T20:28:45.296Z,356.70
2023-01-27T20:33:52.803Z,357.30
2023-01-27T20:39:00.438Z,357.61
2023-01-27T20:44:07.986Z,357.50
2023-01-27T20:49:15.642Z,357.35
2023-01-27T20:54:23.234Z,357.04
2023-01-27T20:59:30.996Z,356.12
2023-01-27T21:04:38.392Z,356.34
2023-01-27T21:09:45.678Z,356.42
2023-01-27T21:14:53.208Z,355.62
2023-01-27T21:20:00.563Z,355.40
2023-01-27T21:25:07.866Z,355.38
2023-01-27T21:30:15.123Z,355.88
2023-01-27T21:35:22.296Z,355.46
2023-01-27T21:40:29.587Z,354.92
2023-01-27T21:45:37.047Z,353.98
2023-01-27T21:50:44.428Z,354.42
2023-01-27T21:55:51.690Z,355.08
2023-01-27T22:00:58.931Z,355.03
2023-01-27T22:06:06.101Z,354.39
2023-01-27T22:11:13.310Z,355.49
2023-01-27T22:16:20.512Z,355.32
2023-01-27T22:21:27.671Z,355.64
2023-01-27T22:26:34.846Z,354.32
2023-01-27T22:31:42.006Z,354.68
2023-01-27T22:36:49.199Z,354.69
2023-01-27T22:41:56.434Z,354.62
2023-01-27T22:47:03.673Z,354.52
2023-01-27T22:52:10.934Z,355.13
2023-01-27T22:57:18.149Z,355.05
2023-01-27T23:02:25.389Z,355.08
2023-01-27T23:07:32.608Z,355.28
2023-01-27T23:12:39.870Z,355.31
2023-01-27T23:17:47.077Z,355.15
2023-01-27T23:22:54.274Z,355.53
2023-01-27T23:28:01.478Z,355.27
2023-01-27T23:33:08.681Z,354.73
2023-01-27T23:38:31.495Z,354.87
2023-01-27T23:43:23.110Z,354.99
2023-01-27T23:48:30.373Z,354.96
2023-01-27T23:53:37.593Z,354.79
2023-01-27T23:58:44.805Z,354.83
